Time;durP1;ratioP1;P1;durP2;ratioP2;P2;SDS_P1;SDS_P2;PMS_P1;PMS_P2;Temp;Humidity;BMP_temperature;BMP_pressure;BME280_temperature;BME280_humidity;BME280_pressure;Samples;Min_cycle;Max_cycle;Signal;HPM_P1;HPM_P2
2021/11/18 00:00:26;;;;;;;8.02;1.35;;;23.40;99.90;;;;;;5027807;28;20221;-68
2021/11/18 00:02:54;;;;;;;5.97;1.17;;;23.50;99.90;;;;;;5032765;28;20029;-67
2021/11/18 00:05:25;;;;;;;8.38;1.65;;;23.50;99.90;;;;;;5047522;28;20477;-68
2021/11/18 00:07:54;;;;;;;6.63;1.10;;;23.80;99.90;;;;;;5033709;28;20488;-68
2021/11/18 00:10:31;;;;;;;5.10;1.60;;;23.80;99.90;;;;;;5032497;28;20034;-68
2021/11/18 00:12:59;;;;;;;4.97;1.02;;;23.50;99.90;;;;;;5020350;28;20026;-69
2021/11/18 00:15:30;;;;;;;11.20;1.50;;;23.60;99.90;;;;;;5029221;28;20022;-67
2021/11/18 00:18:00;;;;;;;5.32;0.82;;;23.60;99.90;;;;;;5032210;28;20546;-68
2021/11/18 00:20:38;;;;;;;5.30;1.45;;;23.80;99.90;;;;;;5014474;28;20022;-69
2021/11/18 00:23:06;;;;;;;6.22;1.00;;;23.90;99.90;;;;;;5014573;28;20049;-67
2021/11/18 00:25:33;;;;;;;4.68;1.15;;;23.70;99.90;;;;;;5031440;28;20026;-69
2021/11/18 00:28:02;;;;;;;7.57;0.98;;;23.70;99.90;;;;;;5033268;28;20045;-68
2021/11/18 00:30:30;;;;;;;6.97;1.10;;;23.70;99.90;;;;;;5033340;28;20021;-69
2021/11/18 00:32:58;;;;;;;8.32;0.95;;;23.80;99.90;;;;;;5032701;28;20025;-69
2021/11/18 00:35:27;;;;;;;5.53;0.85;;;23.70;99.90;;;;;;5019988;28;20049;-68
2021/11/18 00:37:55;;;;;;;4.95;0.63;;;23.80;99.90;;;;;;5034093;28;20044;-68
2021/11/18 00:40:29;;;;;;;7.43;1.30;;;23.90;99.90;;;;;;5033952;28;20033;-69
2021/11/18 00:42:56;;;;;;;;;;;23.70;99.90;;;;;;5033288;28;20037;-69
2021/11/18 00:45:25;;;;;;;6.45;1.00;;;23.70;99.90;;;;;;5023640;28;19917;-68
2021/11/18 00:47:55;;;;;;;8.55;1.20;;;23.70;99.90;;;;;;5033165;28;20044;-68
2021/11/18 00:50:44;;;;;;;4.53;0.73;;;23.70;99.90;;;;;;5033367;28;20025;-69
2021/11/18 00:53:12;;;;;;;6.30;1.25;;;24.00;99.90;;;;;;5013580;28;20133;-69
2021/11/18 00:55:39;;;;;;;6.88;1.40;;;24.00;99.90;;;;;;5020903;28;20393;-68
2021/11/18 00:58:07;;;;;;;4.72;0.80;;;24.30;99.90;;;;;;5053666;28;20039;-68
2021/11/18 01:00:37;;;;;;;6.28;1.15;;;24.60;99.90;;;;;;5051426;28;20021;-69
2021/11/18 01:03:05;;;;;;;3.20;0.70;;;24.60;99.90;;;;;;5031178;28;20104;-68
2021/11/18 01:05:36;;;;;;;3.20;1.00;;;24.00;99.90;;;;;;5030208;28;20044;-67
2021/11/18 01:08:05;;;;;;;4.43;0.75;;;23.90;99.90;;;;;;5033340;28;20441;-68
2021/11/18 01:10:38;;;;;;;7.68;0.80;;;24.10;99.90;;;;;;5033145;28;20026;-69
2021/11/18 01:13:06;;;;;;;2.20;0.45;;;23.90;99.90;;;;;;5013624;28;20030;-69
2021/11/18 01:15:37;;;;;;;7.53;0.90;;;24.00;99.90;;;;;;5013367;28;20037;-69
2021/11/18 01:18:05;;;;;;;5.15;0.88;;;23.80;99.90;;;;;;5013918;28;20103;-68
2021/11/18 01:20:34;;;;;;;5.55;1.20;;;23.80;99.90;;;;;;5014366;28;20026;-68
2021/11/18 01:23:04;;;;;;;5.93;1.20;;;23.90;99.90;;;;;;5026994;28;20045;-68
2021/11/18 01:25:31;;;;;;;8.68;1.00;;;24.10;99.90;;;;;;5032428;28;20021;-69
2021/11/18 01:27:59;;;;;;;8.07;0.80;;;24.40;99.90;;;;;;5052772;28;20063;-68
2021/11/18 01:30:29;;;;;;;4.78;0.80;;;24.10;99.90;;;;;;5052432;28;20032;-68
2021/11/18 01:32:58;;;;;;;4.95;0.63;;;24.50;99.90;;;;;;5030908;28;20388;-69
2021/11/18 01:35:26;;;;;;;4.68;0.50;;;24.70;99.90;;;;;;5032914;28;20029;-68
2021/11/18 01:37:54;;;;;;;5.47;0.80;;;24.40;99.90;;;;;;5052106;28;20507;-69
2021/11/18 01:40:25;;;;;;;3.20;0.70;;;24.30;99.90;;;;;;5036563;28;20396;-69
2021/11/18 01:42:54;;;;;;;4.38;0.85;;;23.90;99.90;;;;;;5050097;28;20194;-69
2021/11/18 01:45:28;;;;;;;4.07;1.05;;;24.10;99.90;;;;;;5038599;28;20045;-68
2021/11/18 01:47:55;;;;;;;2.17;0.55;;;23.90;99.90;;;;;;5052240;28;20047;-68
2021/11/18 01:50:28;;;;;;;4.28;1.23;;;24.00;99.90;;;;;;5052699;28;20044;-68
2021/11/18 01:52:58;;;;;;;5.55;1.13;;;24.40;99.90;;;;;;5051077;28;20079;-69
2021/11/18 01:55:26;;;;;;;4.28;0.57;;;24.30;99.90;;;;;;5068419;28;20112;-68
2021/11/18 01:57:54;;;;;;;6.43;1.00;;;24.20;99.90;;;;;;5052144;28;20028;-68
2021/11/18 02:00:27;;;;;;;4.20;0.68;;;24.30;99.90;;;;;;5023676;28;20501;-69
2021/11/18 02:02:54;;;;;;;6.70;1.33;;;24.40;99.90;;;;;;5013233;28;20116;-68
2021/11/18 02:05:35;;;;;;;5.07;0.65;;;24.40;99.90;;;;;;5037048;28;20055;-69
2021/11/18 02:08:04;;;;;;;6.32;0.88;;;24.40;99.90;;;;;;5031345;28;20029;-68
2021/11/18 02:10:38;;;;;;;3.15;0.60;;;24.20;99.90;;;;;;5030332;28;20064;-69
2021/11/18 02:13:08;;;;;;;3.22;0.55;;;24.30;99.90;;;;;;5030382;28;20032;-70
2021/11/18 02:15:43;;;;;;;4.55;1.00;;;24.40;99.90;;;;;;5030814;28;20021;-69
2021/11/18 02:18:26;;;;;;;4.53;0.82;;;24.30;99.90;;;;;;5017413;28;20018;-68
2021/11/18 02:20:58;;;;;;;2.22;0.40;;;24.40;99.90;;;;;;5034600;28;20029;-69
2021/11/18 02:23:31;;;;;;;5.10;0.70;;;24.00;99.90;;;;;;5052387;28;20033;-68
2021/11/18 02:26:00;;;;;;;4.68;0.80;;;24.00;99.90;;;;;;5047693;28;20448;-68
2021/11/18 02:28:31;;;;;;;4.55;0.70;;;24.00;99.90;;;;;;5033391;28;20072;-68
2021/11/18 02:31:01;;;;;;;2.60;0.70;;;24.10;99.90;;;;;;5035237;28;20111;-69
2021/11/18 02:33:29;;;;;;;2.85;0.57;;;24.10;99.90;;;;;;5052845;28;20096;-68
2021/11/18 02:35:58;;;;;;;3.38;0.40;;;24.50;99.90;;;;;;5047833;28;20032;-69
2021/11/18 02:38:25;;;;;;;2.78;0.45;;;24.50;99.90;;;;;;5033674;28;20390;-68
2021/11/18 02:40:53;;;;;;;3.92;0.45;;;24.50;99.90;;;;;;5037106;28;20092;-68
2021/11/18 02:43:20;;;;;;;2.55;0.70;;;24.40;99.90;;;;;;5056606;28;20469;-68
2021/11/18 02:45:50;;;;;;;3.00;0.65;;;24.10;99.90;;;;;;5052349;28;20061;-70
2021/11/18 02:48:18;;;;;;;3.00;0.90;;;23.80;99.90;;;;;;5034146;28;20498;-69
2021/11/18 02:50:50;;;;;;;5.50;0.77;;;23.80;99.90;;;;;;5036210;28;20033;-70
2021/11/18 02:53:18;;;;;;;5.97;1.25;;;23.90;99.90;;;;;;5040866;28;20119;-69
2021/11/18 02:55:49;;;;;;;7.13;0.75;;;24.20;99.90;;;;;;5032255;28;20039;-69
2021/11/18 02:58:17;;;;;;;5.55;1.15;;;23.70;99.90;;;;;;5035502;28;20026;-68
2021/11/18 03:01:00;;;;;;;2.38;0.57;;;23.60;99.90;;;;;;5036030;28;20031;-70
2021/11/18 03:03:28;;;;;;;3.30;0.60;;;23.30;99.90;;;;;;5032164;28;20489;-69
2021/11/18 03:05:58;;;;;;;3.28;1.05;;;23.10;99.90;;;;;;5030302;28;20029;-69
2021/11/18 03:08:26;;;;;;;5.18;0.82;;;23.10;99.90;;;;;;5032922;28;20026;-68
2021/11/18 03:10:55;;;;;;;5.38;1.15;;;23.10;99.90;;;;;;5035099;28;20029;-68
2021/11/18 03:13:24;;;;;;;9.25;0.95;;;23.30;99.90;;;;;;5033932;28;20022;-69
2021/11/18 03:15:53;;;;;;;5.80;1.13;;;23.50;99.90;;;;;;5035320;28;20408;-69
2021/11/18 03:18:23;;;;;;;6.20;1.33;;;23.50;99.90;;;;;;5042360;28;20045;-69
2021/11/18 03:20:52;;;;;;;5.63;0.95;;;23.50;99.90;;;;;;5033377;28;20056;-69
2021/11/18 03:23:20;;;;;;;7.00;1.33;;;23.30;99.90;;;;;;5016316;28;20378;-68
2021/11/18 03:25:48;;;;;;;5.05;0.98;;;23.10;99.90;;;;;;5037280;28;20044;-69
2021/11/18 03:28:16;;;;;;;8.80;0.95;;;23.20;99.90;;;;;;5035386;28;20037;-69
2021/11/18 03:30:46;;;;;;;6.43;1.23;;;23.10;99.90;;;;;;5036635;28;20033;-69
2021/11/18 03:33:20;;;;;;;9.25;1.58;;;23.20;99.90;;;;;;5055899;28;20052;-69
2021/11/18 03:35:48;;;;;;;4.95;1.55;;;23.10;99.90;;;;;;5051053;28;20033;-69
2021/11/18 03:38:16;;;;;;;4.88;1.45;;;23.20;99.90;;;;;;5035935;28;20025;-69
2021/11/18 03:40:49;;;;;;;11.82;1.73;;;23.00;99.90;;;;;;5034846;28;20605;-68
2021/11/18 03:43:20;;;;;;;7.82;1.10;;;23.10;99.90;;;;;;5051012;28;20021;-68
2021/11/18 03:45:48;;;;;;;10.18;1.30;;;23.00;99.90;;;;;;5035058;28;20152;-69
2021/11/18 03:48:19;;;;;;;10.32;1.42;;;23.10;99.90;;;;;;5055667;28;20476;-68
2021/11/18 03:50:49;;;;;;;7.78;1.67;;;23.00;99.90;;;;;;5046069;28;20029;-69
2021/11/18 03:53:17;;;;;;;6.63;1.48;;;23.10;99.90;;;;;;5055282;28;20078;-68
2021/11/18 03:55:45;;;;;;;10.82;1.50;;;22.90;99.90;;;;;;5056590;28;20056;-70
2021/11/18 03:58:12;;;;;;;7.82;1.20;;;23.00;99.90;;;;;;5031888;28;20065;-69
2021/11/18 04:00:40;;;;;;;9.75;1.85;;;22.80;99.90;;;;;;5022595;28;20442;-70
2021/11/18 04:03:10;;;;;;;15.48;2.05;;;23.00;99.90;;;;;;5048234;28;20038;-70
2021/11/18 04:05:39;;;;;;;9.93;1.45;;;22.90;99.90;;;;;;5030242;28;20043;-69
2021/11/18 04:08:08;;;;;;;8.52;1.88;;;22.70;99.90;;;;;;5042966;28;20111;-69
2021/11/18 04:10:38;;;;;;;8.63;1.52;;;22.80;99.90;;;;;;5051862;28;20017;-69
2021/11/18 04:13:06;;;;;;;10.20;1.50;;;22.90;99.90;;;;;;5029219;28;20021;-70
2021/11/18 04:15:34;;;;;;;5.10;1.65;;;22.80;99.90;;;;;;5032841;28;20075;-70
2021/11/18 04:18:02;;;;;;;8.85;1.50;;;22.90;99.90;;;;;;5050389;28;20040;-70
2021/11/18 04:20:30;;;;;;;9.00;1.30;;;22.80;99.90;;;;;;5048266;28;20397;-73
2021/11/18 04:22:58;;;;;;;10.50;1.48;;;22.90;99.90;;;;;;5034059;28;20144;-71
2021/11/18 04:25:30;;;;;;;10.00;2.05;;;22.90;99.90;;;;;;5033913;28;20026;-71
2021/11/18 04:27:58;;;;;;;10.05;2.78;;;22.90;99.90;;;;;;5034022;28;20032;-72
2021/11/18 04:30:31;;;;;;;5.97;1.10;;;22.80;99.90;;;;;;5022794;28;20385;-72
2021/11/18 04:32:59;;;;;;;7.55;1.77;;;22.90;99.90;;;;;;5023148;28;20056;-72
2021/11/18 04:35:26;;;;;;;10.68;1.23;;;22.80;99.90;;;;;;5032301;28;20040;-70
2021/11/18 04:37:54;;;;;;;7.60;1.65;;;22.80;99.90;;;;;;5032120;28;20409;-74
2021/11/18 04:40:22;;;;;;;11.45;1.75;;;22.90;99.90;;;;;;5032605;28;20030;-72
2021/11/18 04:42:49;;;;;;;9.65;1.85;;;23.00;99.90;;;;;;5036570;28;20029;-73
2021/11/18 04:45:21;;;;;;;9.65;1.40;;;22.90;99.90;;;;;;5046783;28;20103;-70
2021/11/18 04:47:48;;;;;;;6.82;1.20;;;22.80;99.90;;;;;;5029531;28;20592;-70
2021/11/18 04:50:17;;;;;;;8.00;1.55;;;22.90;99.90;;;;;;5046361;28;20025;-70
2021/11/18 04:52:44;;;;;;;8.15;1.48;;;23.10;99.90;;;;;;5029163;28;20032;-70
2021/11/18 04:55:22;;;;;;;9.10;2.08;;;23.20;99.90;;;;;;5036229;28;20424;-70
2021/11/18 04:57:50;;;;;;;9.23;1.80;;;23.30;99.90;;;;;;5034130;28;20033;-70
2021/11/18 05:00:22;;;;;;;8.52;1.25;;;23.40;99.90;;;;;;5066600;28;20025;-69
2021/11/18 05:02:50;;;;;;;7.75;1.73;;;23.60;99.90;;;;;;5039946;28;20017;-68
2021/11/18 05:05:21;;;;;;;10.35;1.77;;;23.60;99.90;;;;;;5034297;28;22064;-69
2021/11/18 05:07:49;;;;;;;7.97;1.48;;;23.40;99.90;;;;;;5035730;28;20038;-69
2021/11/18 05:10:17;;;;;;;7.75;1.75;;;23.40;99.90;;;;;;5034286;28;20034;-68
2021/11/18 05:12:45;;;;;;;7.53;1.13;;;23.50;99.90;;;;;;5040338;28;20022;-70
2021/11/18 05:15:17;;;;;;;9.18;1.15;;;23.50;99.90;;;;;;5048002;28;20040;-70
2021/11/18 05:17:46;;;;;;;8.95;1.48;;;23.40;99.90;;;;;;5037544;28;20025;-70
2021/11/18 05:20:16;;;;;;;11.23;1.63;;;23.20;99.90;;;;;;5044607;28;20021;-71
2021/11/18 05:22:44;;;;;;;5.95;1.08;;;23.00;99.90;;;;;;5036882;28;20505;-69
2021/11/18 05:25:12;;;;;;;10.95;1.52;;;23.10;99.90;;;;;;5043938;28;20483;-70
2021/11/18 05:27:40;;;;;;;9.45;1.55;;;23.20;99.90;;;;;;5037776;28;20110;-69
2021/11/18 05:30:10;;;;;;;11.15;1.67;;;23.20;99.90;;;;;;5057506;28;20033;-70
2021/11/18 05:32:37;;;;;;;9.73;1.20;;;23.40;99.90;;;;;;5042133;28;20033;-70
2021/11/18 05:35:06;;;;;;;10.48;1.77;;;23.40;99.90;;;;;;5042237;28;20024;-70
2021/11/18 05:37:33;;;;;;;8.27;2.05;;;23.30;99.90;;;;;;5035093;28;20032;-69
2021/11/18 05:40:03;;;;;;;9.70;1.35;;;23.60;99.90;;;;;;5034249;28;20052;-69
2021/11/18 05:42:30;;;;;;;5.68;1.55;;;23.50;99.90;;;;;;5034102;28;21550;-69
2021/11/18 05:44:58;;;;;;;7.72;1.55;;;23.60;99.90;;;;;;5036186;28;20049;-70
2021/11/18 05:47:25;;;;;;;6.97;1.55;;;23.60;99.90;;;;;;5035531;28;20041;-71
2021/11/18 05:49:53;;;;;;;7.70;1.17;;;23.60;99.90;;;;;;5036523;28;20094;-71
2021/11/18 05:52:21;;;;;;;7.28;1.17;;;23.60;99.90;;;;;;5040334;28;20469;-69
2021/11/18 05:54:48;;;;;;;10.90;1.65;;;23.90;99.90;;;;;;5032258;28;20592;-69
2021/11/18 05:57:15;;;;;;;8.85;1.63;;;24.10;99.90;;;;;;5031182;28;20106;-69
2021/11/18 05:59:42;;;;;;;13.15;1.67;;;23.90;99.90;;;;;;5031390;28;20492;-69
2021/11/18 06:02:10;;;;;;;7.30;1.42;;;24.00;99.90;;;;;;5032706;28;20492;-69
2021/11/18 06:04:37;;;;;;;6.60;1.40;;;24.10;99.90;;;;;;5019153;28;20036;-70
2021/11/18 06:07:05;;;;;;;8.20;1.52;;;24.20;99.90;;;;;;5043851;28;20504;-69
2021/11/18 06:09:32;;;;;;;7.35;1.45;;;24.00;99.90;;;;;;5039081;28;20033;-72
2021/11/18 06:11:59;;;;;;;11.18;1.55;;;24.20;99.90;;;;;;5025601;28;20401;-71
2021/11/18 06:14:26;;;;;;;10.05;1.83;;;24.70;99.90;;;;;;5047523;28;20041;-72
2021/11/18 06:16:54;;;;;;;9.50;1.38;;;25.10;99.90;;;;;;5046590;28;20537;-72
2021/11/18 06:22:07;;;;;;;10.00;1.55;;;24.30;99.90;;;;;;5043500;28;20024;-73
2021/11/18 06:24:34;;;;;;;9.77;1.05;;;24.50;99.90;;;;;;5047529;28;20033;-72
2021/11/18 06:27:02;;;;;;;10.25;1.83;;;24.60;99.90;;;;;;5038551;28;20029;-72
2021/11/18 06:29:30;;;;;;;9.55;1.80;;;24.70;99.90;;;;;;5039962;28;20029;-71
2021/11/18 06:32:01;;;;;;;8.07;1.33;;;24.50;99.90;;;;;;5036523;28;20017;-70
2021/11/18 06:34:28;;;;;;;6.60;1.27;;;24.60;99.90;;;;;;5053132;28;20119;-73
2021/11/18 06:36:56;;;;;;;13.85;1.60;;;24.20;99.90;;;;;;5046767;28;20083;-71
2021/11/18 06:39:24;;;;;;;8.60;1.60;;;24.10;99.90;;;;;;5040301;28;20036;-71
2021/11/18 06:41:52;;;;;;;13.32;2.20;;;24.20;99.90;;;;;;5034889;28;20470;-73
2021/11/18 06:44:20;;;;;;;11.27;1.73;;;24.30;99.90;;;;;;5049730;28;20036;-72
2021/11/18 06:46:47;;;;;;;10.27;1.75;;;24.20;99.90;;;;;;5055990;28;20055;-72
2021/11/18 06:49:14;;;;;;;9.57;2.15;;;23.70;99.90;;;;;;5049460;28;20026;-71
2021/11/18 06:51:43;;;;;;;8.65;1.65;;;23.10;99.90;;;;;;5029538;28;20489;-72
2021/11/18 06:54:13;;;;;;;11.30;2.33;;;22.60;99.90;;;;;;5035268;28;20064;-71
2021/11/18 06:56:41;;;;;;;16.83;2.50;;;22.30;99.90;;;;;;5034277;28;20458;-70
2021/11/18 06:59:08;;;;;;;13.70;2.00;;;22.10;99.90;;;;;;5041576;28;20022;-68
2021/11/18 07:01:36;;;;;;;15.45;1.90;;;22.10;99.90;;;;;;5044717;28;20088;-69
2021/11/18 07:04:08;;;;;;;15.38;2.30;;;22.00;99.90;;;;;;5047388;28;20029;-68
2021/11/18 07:06:36;;;;;;;14.70;1.67;;;22.00;99.90;;;;;;5041299;28;20037;-68
2021/11/18 07:09:09;;;;;;;9.30;1.50;;;22.10;99.90;;;;;;5038848;28;20037;-68
2021/11/18 07:11:36;;;;;;;11.98;1.70;;;21.80;99.90;;;;;;5044692;28;20082;-68
2021/11/18 07:14:04;;;;;;;11.40;2.00;;;21.70;99.90;;;;;;5062738;28;20112;-67
2021/11/18 07:16:32;;;;;;;11.93;1.70;;;21.70;99.90;;;;;;5045105;28;20052;-68
2021/11/18 07:19:04;;;;;;;10.73;1.60;;;21.50;99.90;;;;;;5051516;28;20092;-68
2021/11/18 07:21:33;;;;;;;12.23;2.47;;;21.50;99.90;;;;;;5047142;28;20017;-68
2021/11/18 07:24:02;;;;;;;9.55;2.17;;;21.50;99.90;;;;;;5046305;28;20022;-67
2021/11/18 07:26:32;;;;;;;11.43;1.90;;;21.50;99.90;;;;;;5043122;28;20017;-68
2021/11/18 07:29:00;;;;;;;13.35;2.30;;;21.30;99.90;;;;;;5043726;28;20052;-68
2021/11/18 07:31:29;;;;;;;7.38;2.05;;;21.30;99.90;;;;;;5035348;28;20547;-68
2021/11/18 07:33:57;;;;;;;17.70;3.25;;;21.30;99.90;;;;;;5037942;28;20021;-68
2021/11/18 07:36:24;;;;;;;10.48;2.78;;;21.30;99.90;;;;;;5031447;28;20026;-68
2021/11/18 07:38:51;;;;;;;12.45;2.25;;;21.20;99.90;;;;;;5024583;28;20545;-68
2021/11/18 07:41:19;;;;;;;10.05;2.15;;;21.20;99.90;;;;;;5037923;28;20477;-67
2021/11/18 07:43:48;;;;;;;14.10;2.88;;;21.20;99.90;;;;;;5041314;28;20036;-68
2021/11/18 07:46:17;;;;;;;13.85;2.25;;;21.00;99.90;;;;;;5054434;28;20135;-68
2021/11/18 07:48:46;;;;;;;15.18;3.05;;;21.10;99.90;;;;;;5052275;28;20033;-68
2021/11/18 07:51:17;;;;;;;9.75;2.33;;;21.10;99.90;;;;;;5033705;28;20041;-68
2021/11/18 07:53:45;;;;;;;11.05;2.17;;;21.10;99.90;;;;;;5037133;28;20052;-69
2021/11/18 07:56:14;;;;;;;12.07;2.25;;;21.00;99.90;;;;;;5043390;28;20025;-69
2021/11/18 07:58:41;;;;;;;13.95;1.88;;;21.00;99.90;;;;;;5039898;28;20021;-69
2021/11/18 08:01:10;;;;;;;13.18;2.45;;;21.00;99.90;;;;;;5037798;28;20037;-70
2021/11/18 08:03:38;;;;;;;10.55;2.25;;;20.90;99.90;;;;;;5040049;28;20415;-72
2021/11/18 08:06:08;;;;;;;10.18;2.30;;;20.90;99.90;;;;;;5047498;28;20503;-68
2021/11/18 08:08:44;;;;;;;11.93;2.58;;;20.90;99.90;;;;;;5048091;28;20029;-68
2021/11/18 08:11:14;;;;;;;14.43;3.08;;;20.90;99.90;;;;;;5038381;28;20021;-68
2021/11/18 08:13:42;;;;;;;8.65;1.75;;;20.80;99.90;;;;;;5048286;28;20017;-68
2021/11/18 08:16:09;;;;;;;12.00;1.70;;;20.80;99.90;;;;;;5051612;28;20048;-68
2021/11/18 08:18:37;;;;;;;14.02;3.08;;;20.80;99.90;;;;;;5034224;28;20033;-68
2021/11/18 08:21:05;;;;;;;18.77;2.97;;;20.80;99.90;;;;;;5047604;28;20045;-68
2021/11/18 08:23:33;;;;;;;8.73;2.65;;;20.80;99.90;;;;;;5035977;28;20032;-70
2021/11/18 08:26:07;;;;;;;13.40;1.98;;;20.80;99.90;;;;;;5039855;28;20025;-68
2021/11/18 08:28:34;;;;;;;11.63;3.20;;;20.80;99.90;;;;;;5048809;28;20032;-68
2021/11/18 08:31:02;;;;;;;16.58;2.70;;;20.70;99.90;;;;;;5036323;28;20515;-68
2021/11/18 08:33:31;;;;;;;10.52;2.42;;;20.80;99.90;;;;;;5036847;28;20026;-68
2021/11/18 08:35:59;;;;;;;12.13;2.33;;;20.80;99.90;;;;;;5047777;28;20098;-68
2021/11/18 08:38:29;;;;;;;12.63;2.30;;;20.80;99.90;;;;;;5045451;28;20474;-70
2021/11/18 08:41:02;;;;;;;14.40;2.70;;;20.70;99.90;;;;;;5042593;28;20026;-70
2021/11/18 08:43:31;;;;;;;8.63;1.83;;;20.80;99.90;;;;;;5033557;28;20017;-70
2021/11/18 08:45:59;;;;;;;8.82;1.40;;;20.80;99.90;;;;;;5028816;28;20054;-70
2021/11/18 08:48:26;;;;;;;12.10;1.90;;;20.80;99.90;;;;;;5041380;28;20045;-69
2021/11/18 08:50:55;;;;;;;10.25;2.22;;;20.80;99.90;;;;;;5038208;28;20025;-70
2021/11/18 08:53:26;;;;;;;10.45;2.20;;;20.80;99.90;;;;;;5033908;28;20025;-70
2021/11/18 08:55:53;;;;;;;11.93;2.05;;;20.80;99.90;;;;;;5033527;28;20063;-70
2021/11/18 08:58:24;;;;;;;9.45;2.38;;;20.70;99.90;;;;;;5042685;28;20072;-70
2021/11/18 09:01:11;;;;;;;11.43;2.13;;;20.80;99.90;;;;;;5035736;28;20032;-71
2021/11/18 09:03:40;;;;;;;16.90;3.08;;;20.80;99.90;;;;;;5041268;28;20025;-70
2021/11/18 09:06:09;;;;;;;11.18;2.50;;;20.70;99.90;;;;;;5042123;28;20079;-70
2021/11/18 09:08:37;;;;;;;11.15;2.50;;;20.70;99.90;;;;;;5032860;28;20029;-70
2021/11/18 09:11:08;;;;;;;11.00;2.15;;;20.80;99.90;;;;;;5033053;28;20478;-69
2021/11/18 09:13:37;;;;;;;9.15;1.60;;;20.70;99.90;;;;;;5033200;28;20024;-70
2021/11/18 09:16:06;;;;;;;10.15;1.60;;;20.70;99.90;;;;;;5035826;28;20139;-70
2021/11/18 09:18:38;;;;;;;8.85;1.85;;;20.70;99.90;;;;;;5041292;28;20037;-69
2021/11/18 09:21:05;;;;;;;12.68;1.42;;;20.70;99.90;;;;;;5037758;28;20017;-70
2021/11/18 09:23:38;;;;;;;8.75;1.73;;;20.80;99.90;;;;;;5048149;28;20381;-69
2021/11/18 09:26:08;;;;;;;11.15;1.55;;;20.80;99.90;;;;;;5031488;28;20041;-70
2021/11/18 09:28:35;;;;;;;7.45;1.52;;;20.80;99.90;;;;;;5037883;28;20555;-70
2021/11/18 09:31:07;;;;;;;6.97;1.60;;;20.80;99.90;;;;;;5036026;28;20040;-69
2021/11/18 09:33:35;;;;;;;12.57;2.90;;;20.80;99.90;;;;;;5032889;28;20108;-70
2021/11/18 09:36:07;;;;;;;11.43;1.85;;;20.80;99.90;;;;;;5033993;28;20017;-69
2021/11/18 09:38:40;;;;;;;9.93;2.15;;;20.80;99.90;;;;;;5042224;28;20036;-70
2021/11/18 09:41:25;;;;;;;8.15;1.85;;;20.70;99.90;;;;;;5036881;28;20835;-70
2021/11/18 09:44:04;;;;;;;11.15;2.00;;;20.70;99.90;;;;;;5031393;28;20060;-70
2021/11/18 09:46:52;;;;;;;9.75;2.58;;;20.70;99.90;;;;;;5039566;28;20412;-70
2021/11/18 09:49:44;;;;;;;11.10;1.77;;;20.70;99.90;;;;;;5042121;28;20073;-70
2021/11/18 09:52:55;;;;;;;14.80;1.92;;;20.70;99.90;;;;;;5034822;28;20032;-70
2021/11/18 09:55:38;;;;;;;13.05;2.00;;;20.70;99.90;;;;;;5026801;28;20482;-70
2021/11/18 09:58:33;;;;;;;16.85;3.63;;;20.70;99.90;;;;;;5015787;28;20604;-70
2021/11/18 10:01:24;;;;;;;12.82;2.22;;;20.70;99.90;;;;;;5020547;28;20017;-70
2021/11/18 10:03:54;;;;;;;8.85;2.13;;;20.70;99.90;;;;;;5048814;28;20020;-70
2021/11/18 10:06:36;;;;;;;14.48;2.03;;;20.70;99.90;;;;;;5051351;28;20017;-70
2021/11/18 10:09:16;;;;;;;11.68;2.65;;;20.60;99.90;;;;;;5061598;28;20088;-70
2021/11/18 10:11:58;;;;;;;16.15;2.88;;;20.60;99.90;;;;;;5033269;28;20087;-70
2021/11/18 10:14:43;;;;;;;17.15;2.65;;;20.60;99.90;;;;;;5045378;28;20040;-70
2021/11/18 10:17:18;;;;;;;10.88;2.70;;;20.60;99.90;;;;;;5034378;28;20117;-70
2021/11/18 10:19:50;;;;;;;8.18;2.08;;;20.60;99.90;;;;;;5031200;28;20067;-70
2021/11/18 10:22:23;;;;;;;19.13;3.35;;;20.60;99.90;;;;;;5032221;28;20021;-71
2021/11/18 10:24:54;;;;;;;21.08;3.00;;;20.60;99.90;;;;;;5038891;28;20092;-71
2021/11/18 10:27:31;;;;;;;13.48;3.17;;;20.50;99.90;;;;;;5049111;28;20397;-71
2021/11/18 10:30:07;;;;;;;12.70;2.35;;;20.50;99.90;;;;;;5037872;28;20036;-71
2021/11/18 10:33:04;;;;;;;16.52;3.13;;;20.50;99.90;;;;;;5036402;28;20026;-71
2021/11/18 10:35:37;;;;;;;14.52;2.63;;;20.50;99.90;;;;;;5035324;28;20026;-71
2021/11/18 10:38:25;;;;;;;20.67;3.23;;;20.50;99.90;;;;;;5037656;28;20026;-71
2021/11/18 10:41:13;;;;;;;15.85;2.72;;;20.50;99.90;;;;;;5045117;28;20040;-71
2021/11/18 10:43:42;;;;;;;19.20;2.80;;;20.50;99.90;;;;;;5048039;28;20558;-71
2021/11/18 10:46:26;;;;;;;19.10;2.42;;;20.50;99.90;;;;;;5039597;28;20029;-71
2021/11/18 10:49:01;;;;;;;16.42;3.25;;;20.50;99.90;;;;;;5034852;28;20477;-71
2021/11/18 10:51:51;;;;;;;17.67;3.75;;;20.50;99.90;;;;;;5031133;28;20082;-71
2021/11/18 10:54:20;;;;;;;17.13;3.05;;;20.50;99.90;;;;;;5032888;28;20036;-71
2021/11/18 10:57:07;;;;;;;23.67;3.67;;;20.50;99.90;;;;;;5032416;28;20025;-71
2021/11/18 10:59:41;;;;;;;18.70;3.28;;;20.40;99.90;;;;;;5030042;28;20083;-71
2021/11/18 11:02:29;;;;;;;11.63;2.92;;;20.50;99.90;;;;;;5042881;28;20561;-71
2021/11/18 11:05:01;;;;;;;18.00;3.42;;;20.50;99.90;;;;;;5035387;28;20029;-72
2021/11/18 11:07:41;;;;;;;18.27;3.25;;;20.40;99.90;;;;;;5035230;28;20036;-71
2021/11/18 11:10:16;;;;;;;18.13;3.40;;;20.40;99.90;;;;;;5035265;28;20029;-71
2021/11/18 11:12:52;;;;;;;16.23;3.00;;;20.40;99.90;;;;;;5034366;28;20116;-71
2021/11/18 11:15:41;;;;;;;22.02;4.15;;;20.40;99.90;;;;;;5015329;28;20440;-71
2021/11/18 11:18:36;;;;;;;22.05;2.97;;;20.40;99.90;;;;;;5024550;28;20025;-71
2021/11/18 11:21:20;;;;;;;20.08;3.10;;;20.40;99.90;;;;;;5035136;28;20040;-71
2021/11/18 11:24:08;;;;;;;18.10;3.17;;;20.40;99.90;;;;;;5035229;28;20072;-70
2021/11/18 11:26:53;;;;;;;13.35;4.00;;;20.30;99.90;;;;;;5034737;28;20032;-70
2021/11/18 11:29:41;;;;;;;19.10;3.25;;;20.30;99.90;;;;;;5034643;28;20037;-70
2021/11/18 11:32:31;;;;;;;20.52;3.97;;;20.30;99.90;;;;;;5034494;28;20029;-70
2021/11/18 11:35:56;;;;;;;15.15;3.33;;;20.30;99.90;;;;;;5029262;28;20486;-70
2021/11/18 11:38:51;;;;;;;29.92;4.57;;;20.30;99.90;;;;;;5020767;28;20044;-70
2021/11/18 11:42:00;;;;;;;20.25;3.60;;;20.20;99.90;;;;;;5033471;28;20440;-70
2021/11/18 11:44:40;;;;;;;19.65;3.45;;;20.20;99.90;;;;;;5029113;28;20072;-71
2021/11/18 11:47:46;;;;;;;19.00;3.70;;;20.20;99.90;;;;;;5039474;28;20029;-71
2021/11/18 11:51:03;;;;;;;18.02;3.50;;;20.20;99.90;;;;;;5041416;28;20033;-70
2021/11/18 11:53:59;;;;;;;24.38;4.43;;;20.20;99.90;;;;;;5035676;28;20056;-71
2021/11/18 11:56:40;;;;;;;22.73;3.22;;;20.20;99.90;;;;;;5034293;28;20052;-70
2021/11/18 11:59:28;;;;;;;16.17;2.85;;;20.20;99.90;;;;;;5034511;28;20120;-70
2021/11/18 12:02:03;;;;;;;20.30;3.15;;;20.10;99.90;;;;;;5044324;28;20555;-71
2021/11/18 12:04:57;;;;;;;20.05;3.92;;;20.10;99.90;;;;;;5041428;28;20028;-69
2021/11/18 12:07:36;;;;;;;19.83;2.83;;;20.10;99.90;;;;;;5019552;28;20034;-71
2021/11/18 12:10:22;;;;;;;11.52;2.42;;;20.20;99.90;;;;;;5033032;28;20387;-69
2021/11/18 12:13:16;;;;;;;16.20;3.35;;;20.20;99.90;;;;;;5036819;28;20087;-72
2021/11/18 12:15:49;;;;;;;26.33;3.67;;;20.20;99.90;;;;;;5033736;28;20029;-69
2021/11/18 12:18:43;;;;;;;17.45;3.50;;;20.20;99.90;;;;;;5033760;28;20036;-72
2021/11/18 12:21:11;;;;;;;18.33;3.38;;;20.20;99.90;;;;;;5033672;28;20056;-69
2021/11/18 12:24:06;;;;;;;14.55;3.28;;;20.20;99.90;;;;;;5033676;28;20037;-71
2021/11/18 12:26:56;;;;;;;17.55;3.92;;;20.30;99.90;;;;;;5033935;28;20482;-70
2021/11/18 12:29:25;;;;;;;20.20;3.50;;;20.20;99.90;;;;;;5027130;28;20041;-71
2021/11/18 12:32:25;;;;;;;13.18;3.08;;;20.20;99.90;;;;;;5033508;28;20033;-70
2021/11/18 12:35:00;;;;;;;17.83;4.68;;;20.30;99.90;;;;;;5033624;28;20021;-70
2021/11/18 12:37:45;;;;;;;12.93;2.28;;;20.20;99.90;;;;;;5018866;28;20033;-70
2021/11/18 12:40:36;;;;;;;13.20;2.70;;;20.20;99.90;;;;;;5032704;28;20393;-70
2021/11/18 12:43:31;;;;;;;16.27;2.17;;;20.20;99.90;;;;;;5032145;28;20029;-71
2021/11/18 12:46:20;;;;;;;;;;;20.20;99.90;;;;;;5033664;28;20041;-70
2021/11/18 12:49:03;;;;;;;19.40;2.72;;;20.30;99.90;;;;;;5014152;28;19920;-70
2021/11/18 12:51:45;;;;;;;13.55;2.72;;;20.20;99.90;;;;;;5035850;28;20046;-71
2021/11/18 12:54:17;;;;;;;17.25;2.53;;;20.20;99.90;;;;;;5033279;28;20017;-70
2021/11/18 12:56:56;;;;;;;15.00;2.00;;;20.20;99.90;;;;;;5035658;28;20105;-70
2021/11/18 12:59:46;;;;;;;14.48;2.80;;;20.20;99.90;;;;;;5042268;28;20064;-71
2021/11/18 13:02:28;;;;;;;14.20;3.40;;;20.20;99.90;;;;;;5030733;28;20041;-70
2021/11/18 13:05:02;;;;;;;15.07;3.00;;;20.20;99.90;;;;;;5033041;28;20466;-70
2021/11/18 13:07:41;;;;;;;;;;;20.20;99.90;;;;;;5033122;28;20053;-71
2021/11/18 13:10:28;;;;;;;13.75;2.55;;;20.20;99.90;;;;;;5032957;28;19905;-70
2021/11/18 13:13:04;;;;;;;13.45;2.40;;;20.20;99.90;;;;;;5026123;28;20044;-70
2021/11/18 13:15:44;;;;;;;13.48;2.15;;;20.20;99.90;;;;;;5040516;28;20032;-71